createdAt,value
2019-04-06T00:00:27.073Z,18.07
2019-04-06T00:05:31.865Z,18.87
2019-04-06T00:10:36.565Z,18.67
2019-04-06T00:15:42.150Z,17.87
2019-04-06T00:20:46.719Z,18.63
2019-04-06T00:25:51.297Z,19.23
2019-04-06T00:31:09.014Z,19.53
2019-04-06T00:36:14.211Z,19.83
2019-04-06T00:41:19.111Z,19.30
2019-04-06T00:46:26.259Z,18.13
2019-04-06T00:51:30.876Z,19.70
2019-04-06T00:56:35.886Z,20.67
2019-04-06T01:01:40.458Z,19.10
2019-04-06T01:06:45.437Z,17.80
2019-04-06T01:11:50.338Z,18.53
2019-04-06T01:16:54.898Z,18.80
2019-04-06T01:21:59.510Z,22.23
2019-04-06T01:27:04.089Z,19.70
2019-04-06T01:32:08.752Z,18.73
2019-04-06T01:37:13.302Z,20.00
2019-04-06T01:42:18.113Z,21.83
2019-04-06T01:47:22.749Z,19.37
2019-04-06T01:52:27.296Z,18.57
2019-04-06T01:57:32.238Z,19.83
2019-04-06T02:02:38.599Z,19.53
2019-04-06T02:07:43.259Z,18.27
2019-04-06T02:12:47.830Z,18.97
2019-04-06T02:17:52.481Z,19.37
2019-04-06T02:22:57.162Z,17.90
2019-04-06T02:28:01.740Z,16.53
2019-04-06T02:33:24.507Z,18.30
2019-04-06T02:38:48.213Z,17.27
2019-04-06T02:43:52.916Z,16.37
2019-04-06T02:48:57.460Z,18.27
2019-04-06T02:54:02.583Z,19.50
2019-04-06T02:59:07.295Z,16.60
2019-04-06T03:04:11.896Z,18.23
2019-04-06T03:09:16.499Z,17.80
2019-04-06T03:14:21.184Z,18.93
2019-04-06T03:19:25.768Z,17.17
2019-04-06T03:24:30.503Z,18.57
2019-04-06T03:29:35.189Z,17.30
2019-04-06T03:34:41.215Z,17.53
2019-04-06T03:39:45.923Z,18.70
2019-04-06T03:44:51.876Z,15.70
2019-04-06T03:49:56.548Z,16.40
2019-04-06T03:55:02.824Z,17.43
2019-04-06T04:00:07.600Z,16.90
2019-04-06T04:05:12.647Z,18.20
2019-04-06T04:10:36.072Z,18.30
2019-04-06T04:15:41.839Z,18.40
2019-04-06T04:20:46.408Z,17.47
2019-04-06T04:25:52.214Z,16.27
2019-04-06T04:30:56.882Z,16.80
2019-04-06T04:36:02.392Z,15.83
2019-04-06T04:41:08.906Z,16.00
2019-04-06T04:46:14.756Z,16.60
2019-04-06T04:51:19.458Z,14.13
2019-04-06T04:56:25.441Z,15.87
2019-04-06T05:01:30.126Z,14.33
2019-04-06T05:06:36.120Z,13.87
2019-04-06T05:11:40.677Z,14.40
2019-04-06T05:16:46.602Z,16.07
2019-04-06T05:21:51.430Z,14.57
2019-04-06T05:26:56.142Z,14.87
2019-04-06T05:32:01.838Z,13.80
2019-04-06T05:37:08.204Z,13.13
2019-04-06T05:42:13.961Z,14.40
2019-04-06T05:47:19.885Z,14.27
2019-04-06T05:52:25.819Z,12.43
2019-04-06T05:57:32.808Z,12.37
2019-04-06T06:02:40.361Z,12.07
2019-04-06T06:07:45.511Z,11.13
2019-04-06T06:12:50.138Z,10.67
2019-04-06T06:17:56.382Z,9.90
2019-04-06T06:23:00.971Z,10.97
2019-04-06T06:28:14.165Z,11.83
2019-04-06T06:33:12.952Z,11.00
2019-04-06T06:38:18.816Z,10.90
2019-04-06T06:43:23.614Z,9.73
2019-04-06T06:48:29.699Z,10.97
2019-04-06T06:53:34.378Z,9.07
2019-04-06T06:58:40.388Z,8.63
2019-04-06T07:03:46.557Z,8.20
2019-04-06T07:08:52.143Z,9.30
2019-04-06T07:13:57.029Z,9.40
2019-04-06T07:19:02.856Z,9.50
2019-04-06T07:24:07.507Z,8.90
2019-04-06T07:29:15.555Z,8.87
2019-04-06T07:34:20.258Z,8.60
2019-04-06T07:39:25.904Z,6.30
2019-04-06T07:44:30.526Z,5.90
2019-04-06T07:49:36.800Z,6.50
2019-04-06T07:54:41.498Z,6.10
2019-04-06T07:59:47.427Z,6.43
2019-04-06T08:04:51.998Z,6.73
2019-04-06T08:09:58.919Z,7.23
2019-04-06T08:15:03.675Z,6.33
2019-04-06T08:20:09.603Z,6.90
2019-04-06T08:25:14.229Z,5.77
2019-04-06T08:30:18.944Z,5.47
2019-04-06T08:35:25.756Z,6.80
2019-04-06T08:40:31.328Z,6.10
2019-04-06T08:45:35.977Z,5.70
2019-04-06T08:50:41.653Z,5.53
2019-04-06T08:55:46.320Z,6.10
2019-04-06T09:00:52.427Z,6.67
2019-04-06T09:05:57.086Z,7.27
2019-04-06T09:11:03.738Z,6.90
2019-04-06T09:16:09.724Z,7.60
2019-04-06T09:21:16.128Z,6.67
2019-04-06T09:26:20.932Z,6.63
2019-04-06T09:31:26.988Z,5.23
2019-04-06T09:36:31.542Z,4.87
2019-04-06T09:41:37.491Z,6.73
2019-04-06T09:46:59.968Z,7.23
2019-04-06T09:52:27.801Z,6.40
2019-04-06T09:57:51.503Z,6.90
2019-04-06T10:03:06.099Z,6.47
2019-04-06T10:08:32.567Z,7.00
2019-04-06T10:13:56.253Z,5.37
2019-04-06T10:19:19.977Z,5.33
2019-04-06T10:24:52.716Z,6.53
2019-04-06T10:30:16.563Z,6.57
2019-04-06T10:35:46.076Z,5.50
2019-04-06T10:41:09.966Z,6.83
2019-04-06T10:46:33.782Z,6.00
2019-04-06T10:51:58.890Z,6.10
2019-04-06T10:57:31.704Z,4.97
2019-04-06T11:02:54.505Z,6.30
2019-04-06T11:08:05.974Z,6.50
2019-04-06T11:13:16.985Z,6.60
2019-04-06T11:18:52.806Z,5.23
2019-04-06T11:24:13.172Z,6.00
2019-04-06T11:29:25.913Z,5.43
2019-04-06T11:34:52.328Z,5.13
2019-04-06T11:40:16.171Z,6.07
2019-04-06T11:45:45.652Z,6.53
2019-04-06T11:51:10.558Z,6.40
2019-04-06T11:56:32.122Z,6.60
2019-04-06T12:02:00.194Z,6.13
2019-04-06T12:07:19.915Z,6.10
2019-04-06T12:12:42.732Z,5.53
2019-04-06T12:18:19.348Z,6.07
2019-04-06T12:23:39.272Z,6.53
2019-04-06T12:28:54.770Z,6.80
2019-04-06T12:34:10.403Z,5.87
2019-04-06T12:39:21.472Z,2.93
2019-04-06T12:44:58.619Z,6.50
2019-04-06T12:50:37.681Z,4.63
2019-04-06T12:56:04.406Z,6.53
2019-04-06T13:01:32.007Z,5.70
2019-04-06T13:06:54.651Z,5.57
2019-04-06T13:12:21.547Z,6.50
2019-04-06T13:17:45.218Z,5.83
2019-04-06T13:23:00.824Z,6.40
2019-04-06T13:28:14.773Z,6.00
2019-04-06T13:33:40.528Z,6.47
2019-04-06T13:39:13.260Z,6.43
2019-04-06T13:44:36.776Z,6.50
2019-04-06T13:50:03.155Z,6.40
2019-04-06T13:55:36.190Z,6.93
2019-04-06T14:01:16.104Z,6.40
2019-04-06T14:06:27.096Z,6.67
2019-04-06T14:11:41.930Z,6.17
2019-04-06T14:17:11.885Z,7.67
2019-04-06T14:22:26.816Z,8.37
2019-04-06T14:27:41.382Z,7.30
2019-04-06T14:33:14.045Z,6.07
2019-04-06T14:38:32.766Z,6.90
2019-04-06T14:43:53.810Z,7.13
2019-04-06T14:49:28.455Z,5.17
2019-04-06T14:54:53.620Z,5.87
2019-04-06T15:00:15.485Z,7.27
2019-04-06T15:05:32.211Z,7.13
2019-04-06T15:10:56.001Z,6.97
2019-04-06T15:16:26.668Z,7.67
2019-04-06T15:21:44.527Z,6.83
2019-04-06T15:27:02.693Z,7.60
2019-04-06T15:32:45.731Z,7.47
2019-04-06T15:38:09.483Z,7.37
2019-04-06T15:43:38.438Z,7.70
2019-04-06T15:49:09.644Z,5.80
2019-04-06T15:54:51.982Z,6.17
2019-04-06T16:00:18.913Z,7.50
2019-04-06T16:05:50.947Z,6.07
2019-04-06T16:11:14.631Z,6.77
2019-04-06T16:16:25.617Z,6.70
2019-04-06T16:21:48.412Z,7.03
2019-04-06T16:27:19.246Z,7.43
2019-04-06T16:32:49.661Z,6.77
2019-04-06T16:38:12.619Z,8.10
2019-04-06T16:43:25.024Z,8.13
2019-04-06T16:48:45.524Z,7.90
2019-04-06T16:54:15.516Z,8.00
2019-04-06T16:59:51.201Z,7.50
2019-04-06T17:05:20.228Z,7.60
2019-04-06T17:10:40.599Z,8.23
2019-04-06T17:15:54.983Z,7.70
2019-04-06T17:21:19.400Z,7.43
2019-04-06T17:26:46.003Z,8.10
2019-04-06T17:31:59.355Z,7.27
2019-04-06T17:37:31.975Z,8.00
2019-04-06T17:42:54.872Z,7.40
2019-04-06T17:48:09.939Z,6.87
2019-04-06T17:53:30.687Z,7.20
2019-04-06T17:59:01.133Z,6.90
2019-04-06T18:04:23.981Z,6.63
2019-04-06T18:09:49.186Z,7.53
2019-04-06T18:14:54.146Z,6.43
2019-04-06T18:19:58.857Z,7.37
2019-04-06T18:25:04.850Z,7.33
2019-04-06T18:30:09.424Z,7.00
2019-04-06T18:35:14.277Z,7.27
2019-04-06T18:40:27.079Z,6.77
2019-04-06T18:45:33.080Z,6.73
2019-04-06T18:50:38.944Z,6.40
2019-04-06T18:55:44.861Z,7.23
2019-04-06T19:00:49.827Z,7.63
2019-04-06T19:05:56.044Z,6.93
2019-04-06T19:11:00.621Z,6.40
2019-04-06T19:16:08.385Z,7.13
2019-04-06T19:21:12.933Z,6.40
2019-04-06T19:26:18.796Z,6.87
2019-04-06T19:31:24.316Z,6.20
2019-04-06T19:36:29.538Z,6.20
2019-04-06T19:41:34.233Z,6.63
2019-04-06T19:46:40.034Z,6.83
2019-04-06T19:51:44.554Z,6.60
2019-04-06T19:56:49.634Z,6.57
2019-04-06T20:01:54.173Z,6.33
2019-04-06T20:06:59.317Z,7.23
2019-04-06T20:12:07.258Z,7.33
2019-04-06T20:17:10.960Z,7.70
2019-04-06T20:22:15.555Z,8.07
2019-04-06T20:27:21.525Z,9.20
2019-04-06T20:32:26.126Z,6.97
2019-04-06T20:37:34.426Z,6.83
2019-04-06T20:42:39.468Z,6.67
2019-04-06T20:47:45.070Z,7.00
2019-04-06T20:52:50.814Z,7.30
2019-04-06T20:58:16.697Z,6.83
2019-04-06T21:03:31.147Z,6.33
2019-04-06T21:08:36.526Z,6.43
2019-04-06T21:13:41.121Z,6.93
2019-04-06T21:18:46.924Z,7.20
2019-04-06T21:23:51.568Z,6.93
2019-04-06T21:28:57.591Z,6.57
2019-04-06T21:34:11.524Z,6.77
2019-04-06T21:39:08.930Z,7.23
2019-04-06T21:44:13.470Z,6.53
2019-04-06T21:49:18.987Z,7.00
2019-04-06T21:54:23.991Z,5.80
2019-04-06T21:59:29.055Z,6.47
2019-04-06T22:04:35.022Z,5.50
2019-04-06T22:09:39.992Z,6.60
2019-04-06T22:14:46.177Z,6.27
2019-04-06T22:19:50.791Z,6.63
2019-04-06T22:24:55.309Z,6.30
2019-04-06T22:30:00.284Z,5.93
2019-04-06T22:35:05.683Z,6.53
2019-04-06T22:40:10.414Z,6.40
2019-04-06T22:45:17.491Z,6.10
2019-04-06T22:50:22.162Z,5.80
2019-04-06T22:55:27.096Z,6.20
2019-04-06T23:00:34.868Z,6.13
2019-04-06T23:05:44.007Z,5.77
2019-04-06T23:10:48.793Z,5.83
2019-04-06T23:15:53.465Z,6.10
2019-04-06T23:20:58.726Z,5.43
2019-04-06T23:26:04.158Z,6.57
2019-04-06T23:31:08.834Z,6.13
2019-04-06T23:36:13.670Z,5.60
2019-04-06T23:41:18.460Z,6.03
2019-04-06T23:46:23.446Z,5.23
2019-04-06T23:51:28.121Z,5.23
2019-04-06T23:56:32.682Z,4.97
